Time;durP1;ratioP1;P1;durP2;ratioP2;P2;SDS_P1;SDS_P2;PMS_P1;PMS_P2;Temp;Humidity;BMP_temperature;BMP_pressure;BME280_temperature;BME280_humidity;BME280_pressure;Samples;Min_cycle;Max_cycle;Signal;HPM_P1;HPM_P2
2022/01/17 00:01:47;;;;;;;11.65;1.52;;;5.90;99.90;;;;;;5095940;27;20047;-82
2022/01/17 00:04:13;;;;;;;11.85;1.50;;;5.90;99.90;;;;;;5095467;27;20039;-82
2022/01/17 00:06:39;;;;;;;6.95;1.00;;;6.60;99.90;;;;;;5095825;27;20158;-82
2022/01/17 00:09:06;;;;;;;10.85;1.13;;;5.90;99.90;;;;;;5096112;27;20116;-83
2022/01/17 00:11:33;;;;;;;11.75;1.15;;;5.90;99.90;;;;;;5112766;27;20093;-82
2022/01/17 00:13:58;;;;;;;16.98;1.98;;;5.90;99.90;;;;;;5096035;27;20043;-83
2022/01/17 00:16:39;;;;;;;8.93;1.42;;;7.00;99.90;;;;;;5095362;27;20051;-83
2022/01/17 00:19:29;;;;;;;13.15;1.52;;;6.40;99.90;;;;;;5098076;27;20039;-83
2022/01/17 00:21:51;;;;;;;12.50;1.08;;;6.20;99.90;;;;;;5112538;27;20188;-83
2022/01/17 00:24:18;;;;;;;11.77;1.35;;;6.00;99.90;;;;;;5112260;27;20126;-83
2022/01/17 00:26:47;;;;;;;12.23;1.55;;;5.90;99.90;;;;;;5112706;27;20484;-82
2022/01/17 00:29:13;;;;;;;15.55;2.03;;;6.30;99.90;;;;;;5112261;27;20049;-82
2022/01/17 00:31:39;;;;;;;12.20;1.60;;;5.90;99.90;;;;;;5112637;27;20042;-82
2022/01/17 00:34:04;;;;;;;14.15;1.60;;;5.90;99.90;;;;;;5111756;27;20043;-82
2022/01/17 00:36:30;;;;;;;13.82;1.50;;;5.90;99.90;;;;;;5095478;27;20047;-82
2022/01/17 00:38:56;;;;;;;17.67;1.60;;;5.90;99.90;;;;;;5111839;27;20046;-81
2022/01/17 00:41:22;;;;;;;11.05;1.88;;;5.90;99.90;;;;;;5111802;27;20078;-82
2022/01/17 00:43:47;;;;;;;10.68;1.50;;;5.90;99.90;;;;;;5095248;27;20450;-82
2022/01/17 00:46:13;;;;;;;12.13;2.03;;;6.30;99.90;;;;;;5078444;27;20047;-82
2022/01/17 00:48:39;;;;;;;15.88;1.67;;;6.60;99.90;;;;;;5095133;27;20058;-84
2022/01/17 00:51:05;;;;;;;19.90;1.98;;;7.40;99.90;;;;;;5111698;27;20138;-84
2022/01/17 00:53:30;;;;;;;12.85;1.45;;;7.40;99.90;;;;;;5095291;27;20490;-82
2022/01/17 00:55:56;;;;;;;7.75;1.20;;;5.70;99.90;;;;;;5111656;27;20082;-82
2022/01/17 00:58:22;;;;;;;18.02;2.80;;;5.70;99.90;;;;;;5094598;27;20130;-82
2022/01/17 01:00:48;;;;;;;16.52;1.90;;;6.00;99.90;;;;;;5094891;27;20035;-82
2022/01/17 01:03:13;;;;;;;10.95;1.48;;;5.60;99.90;;;;;;5094577;27;20079;-82
2022/01/17 01:05:39;;;;;;;21.20;1.55;;;5.60;99.90;;;;;;5094768;27;20047;-82
2022/01/17 01:08:05;;;;;;;18.45;2.05;;;5.60;99.90;;;;;;5094747;27;20061;-82
2022/01/17 01:10:32;;;;;;;16.33;1.92;;;5.60;99.90;;;;;;5111710;27;20555;-82
2022/01/17 01:12:58;;;;;;;16.60;1.73;;;5.50;99.90;;;;;;5111587;27;20103;-82
2022/01/17 01:15:44;;;;;;;20.73;2.00;;;7.10;99.90;;;;;;5094360;27;20043;-82
2022/01/17 01:18:19;;;;;;;14.27;1.50;;;5.60;99.90;;;;;;5130311;27;20451;-82
2022/01/17 01:28:44;;;;;;;17.27;1.70;;;5.60;99.90;;;;;;5129892;27;20133;-82
2022/01/17 01:31:22;;;;;;;18.08;1.58;;;5.60;99.90;;;;;;5129728;27;20054;-82
2022/01/17 01:33:53;;;;;;;13.32;1.45;;;7.40;99.90;;;;;;5129653;27;20114;-82
2022/01/17 01:36:26;;;;;;;17.73;1.85;;;7.00;99.90;;;;;;5111590;27;20047;-82
2022/01/17 01:38:52;;;;;;;13.18;1.25;;;5.60;99.90;;;;;;5093935;27;20049;-82
2022/01/17 01:41:18;;;;;;;14.52;1.40;;;5.60;99.90;;;;;;5093872;27;20047;-82
2022/01/17 01:43:43;;;;;;;11.70;1.85;;;7.00;99.90;;;;;;5111075;27;20042;-81
2022/01/17 01:46:11;;;;;;;18.05;2.03;;;6.50;99.90;;;;;;5110565;27;20047;-82
2022/01/17 01:48:37;;;;;;;9.60;1.17;;;5.70;99.90;;;;;;5110774;27;20055;-82
2022/01/17 01:51:03;;;;;;;8.93;1.73;;;5.50;99.90;;;;;;5110502;27;20084;-82
2022/01/17 01:53:29;;;;;;;17.33;1.00;;;5.50;99.90;;;;;;5110998;27;20058;-82
2022/01/17 01:55:58;;;;;;;15.85;1.42;;;5.40;99.90;;;;;;5093526;27;20050;-82
2022/01/17 01:58:25;;;;;;;12.18;1.88;;;5.40;99.90;;;;;;5110450;27;20051;-82
2022/01/17 02:00:52;;;;;;;12.52;2.08;;;5.40;99.90;;;;;;5093437;27;20040;-82
2022/01/17 02:03:18;;;;;;;14.75;1.33;;;5.40;99.90;;;;;;5110508;27;20089;-82
2022/01/17 02:05:44;;;;;;;21.05;2.08;;;5.40;99.90;;;;;;5110828;27;20039;-82
2022/01/17 02:08:14;;;;;;;16.50;1.50;;;5.40;99.90;;;;;;5110444;27;20386;-82
2022/01/17 02:10:40;;;;;;;16.20;1.77;;;5.40;99.90;;;;;;5076591;27;20054;-82
2022/01/17 02:13:06;;;;;;;8.38;1.13;;;5.40;99.90;;;;;;5093328;27;20129;-82
2022/01/17 02:15:32;;;;;;;21.60;2.25;;;6.40;99.90;;;;;;5109984;27;20122;-82
2022/01/17 02:17:58;;;;;;;12.20;1.50;;;5.30;99.90;;;;;;5110446;27;20054;-82
2022/01/17 02:20:41;;;;;;;9.13;1.90;;;6.00;99.90;;;;;;5110327;27;20043;-82
2022/01/17 02:23:08;;;;;;;12.15;1.27;;;5.30;99.90;;;;;;5093095;27;20050;-82
2022/01/17 02:25:34;;;;;;;18.88;1.65;;;5.30;99.90;;;;;;5075888;27;20129;-81
2022/01/17 02:28:00;;;;;;;11.48;1.15;;;6.60;99.90;;;;;;5093060;27;20478;-82
2022/01/17 02:30:31;;;;;;;11.98;1.90;;;5.30;99.90;;;;;;5109910;27;20047;-82
2022/01/17 02:32:58;;;;;;;9.85;1.33;;;5.20;99.90;;;;;;5109660;27;20050;-82
2022/01/17 02:35:24;;;;;;;21.75;1.52;;;5.20;99.90;;;;;;5110170;27;20575;-82
2022/01/17 02:37:51;;;;;;;11.27;1.13;;;5.20;99.90;;;;;;5092540;27;20043;-82
2022/01/17 02:40:18;;;;;;;10.85;1.13;;;5.20;99.90;;;;;;5109894;27;20062;-82
2022/01/17 02:42:56;;;;;;;11.45;1.27;;;6.00;99.90;;;;;;5109483;27;20043;-82
2022/01/17 02:48:11;;;;;;;17.75;1.73;;;5.40;99.90;;;;;;5068501;27;20039;-82
2022/01/17 02:50:39;;;;;;;20.80;1.38;;;6.00;99.90;;;;;;5109277;27;20057;-82
2022/01/17 02:53:11;;;;;;;17.02;2.97;;;5.30;99.90;;;;;;5092827;27;20068;-81
2022/01/17 02:55:39;;;;;;;11.95;1.48;;;5.40;99.90;;;;;;5109857;27;20100;-82
2022/01/17 02:58:05;;;;;;;16.52;1.77;;;5.30;99.90;;;;;;5092508;27;20049;-82
2022/01/17 03:00:30;;;;;;;19.05;2.28;;;5.40;99.90;;;;;;5093162;27;20035;-82
2022/01/17 03:02:56;;;;;;;18.60;1.92;;;5.50;99.90;;;;;;5092734;28;20467;-82
2022/01/17 03:05:22;;;;;;;18.40;2.75;;;5.40;99.90;;;;;;5109667;27;20086;-82
2022/01/17 03:07:50;;;;;;;25.02;2.67;;;7.10;99.90;;;;;;5109094;28;20042;-82
2022/01/17 03:10:39;;;;;;;23.20;1.60;;;6.90;99.90;;;;;;5128269;27;20035;-82
2022/01/17 03:13:04;;;;;;;15.05;1.98;;;6.60;99.90;;;;;;5108491;28;20055;-82
2022/01/17 03:15:30;;;;;;;14.95;2.13;;;5.50;99.90;;;;;;5109010;28;20047;-82
2022/01/17 03:17:56;;;;;;;19.35;1.70;;;7.20;99.90;;;;;;5128066;28;20043;-82
2022/01/17 03:20:22;;;;;;;17.90;1.80;;;5.50;99.90;;;;;;5127751;28;20041;-82
2022/01/17 03:22:48;;;;;;;14.13;1.88;;;5.60;99.90;;;;;;5128255;28;20039;-82
2022/01/17 03:25:13;;;;;;;11.32;1.55;;;5.60;99.90;;;;;;5091995;28;20047;-82
2022/01/17 03:27:39;;;;;;;13.82;1.77;;;5.60;99.90;;;;;;5109389;28;20141;-82
2022/01/17 03:30:06;;;;;;;19.58;1.80;;;5.70;99.90;;;;;;5075420;28;20043;-82
2022/01/17 03:32:31;;;;;;;8.45;1.98;;;5.70;99.90;;;;;;5109488;28;20118;-82
2022/01/17 03:34:57;;;;;;;14.05;2.08;;;5.90;99.90;;;;;;5092417;28;20135;-82
2022/01/17 03:37:23;;;;;;;8.40;1.13;;;5.70;99.90;;;;;;5109197;28;20107;-82
2022/01/17 03:39:49;;;;;;;16.50;1.52;;;6.30;99.90;;;;;;5109233;28;20050;-82
2022/01/17 03:42:18;;;;;;;24.15;1.85;;;5.80;99.90;;;;;;5109247;28;20096;-82
2022/01/17 03:44:43;;;;;;;19.02;2.17;;;5.80;99.90;;;;;;5093179;28;20114;-82
2022/01/17 03:47:09;;;;;;;15.52;1.40;;;5.80;99.90;;;;;;5091797;28;20483;-82
2022/01/17 03:49:35;;;;;;;9.90;1.52;;;5.80;99.90;;;;;;5108972;28;20506;-82
2022/01/17 03:52:01;;;;;;;10.48;1.60;;;5.80;99.90;;;;;;5109069;28;20045;-82
2022/01/17 03:54:26;;;;;;;16.17;1.30;;;5.90;99.90;;;;;;5092142;28;20039;-82
2022/01/17 03:56:52;;;;;;;6.70;1.27;;;7.90;99.90;;;;;;5092120;28;20040;-82
2022/01/17 03:59:18;;;;;;;12.75;1.63;;;6.80;99.90;;;;;;5092178;28;20047;-82
2022/01/17 04:01:43;;;;;;;9.38;2.20;;;5.90;99.90;;;;;;5109523;28;20122;-82
2022/01/17 04:04:09;;;;;;;11.52;1.55;;;5.90;99.90;;;;;;5092092;28;20043;-82
2022/01/17 04:06:35;;;;;;;12.65;1.45;;;5.90;99.90;;;;;;5108596;28;20043;-82
2022/01/17 04:09:01;;;;;;;12.63;1.27;;;5.90;99.90;;;;;;5109179;28;20051;-82
2022/01/17 04:11:26;;;;;;;18.50;1.73;;;5.90;99.90;;;;;;5092091;28;20054;-82
2022/01/17 04:13:52;;;;;;;12.50;1.60;;;5.90;99.90;;;;;;5108864;27;20079;-82
2022/01/17 04:16:18;;;;;;;14.52;1.75;;;6.70;99.90;;;;;;5108501;28;20054;-82
2022/01/17 04:18:43;;;;;;;16.38;1.60;;;6.00;99.90;;;;;;5092142;28;20042;-82
2022/01/17 04:21:09;;;;;;;11.20;1.52;;;6.90;99.90;;;;;;5091424;28;20055;-82
2022/01/17 04:23:35;;;;;;;20.02;1.73;;;6.00;99.90;;;;;;5108822;27;20050;-82
2022/01/17 04:26:00;;;;;;;6.78;1.40;;;6.00;99.90;;;;;;5095146;27;20054;-81
2022/01/17 04:28:26;;;;;;;12.07;1.48;;;6.00;99.90;;;;;;5095510;27;20096;-82
2022/01/17 04:30:52;;;;;;;18.35;1.48;;;6.00;99.90;;;;;;5112840;27;20039;-82
2022/01/17 04:33:17;;;;;;;10.93;1.38;;;6.00;99.90;;;;;;5112469;27;20490;-82
2022/01/17 04:35:44;;;;;;;9.65;1.23;;;6.10;99.90;;;;;;5078755;27;20051;-82
2022/01/17 04:38:16;;;;;;;12.23;1.42;;;6.60;99.90;;;;;;5095455;27;20501;-82
2022/01/17 04:40:45;;;;;;;13.35;1.45;;;8.00;99.90;;;;;;5112090;27;20043;-82
2022/01/17 04:43:21;;;;;;;10.68;1.67;;;6.20;99.90;;;;;;5112204;27;20047;-82
2022/01/17 04:45:49;;;;;;;12.88;1.65;;;6.20;99.90;;;;;;5111842;27;20051;-81
2022/01/17 04:48:15;;;;;;;17.30;1.92;;;7.60;99.90;;;;;;5111180;27;20047;-82
2022/01/17 04:50:41;;;;;;;13.70;1.48;;;6.20;99.90;;;;;;5110656;27;20043;-82
2022/01/17 04:53:07;;;;;;;22.73;3.05;;;6.30;99.90;;;;;;5094555;27;20455;-82
2022/01/17 04:55:35;;;;;;;16.90;1.75;;;6.30;99.90;;;;;;5093800;27;20398;-82
2022/01/17 04:58:01;;;;;;;27.80;2.20;;;6.30;99.90;;;;;;5110310;27;20403;-82
2022/01/17 05:00:27;;;;;;;19.23;2.05;;;6.30;99.90;;;;;;5093871;27;20031;-82
2022/01/17 05:02:54;;;;;;;13.57;1.80;;;7.50;99.90;;;;;;5093413;27;20055;-82
2022/01/17 05:05:20;;;;;;;7.45;2.05;;;6.30;99.90;;;;;;5111119;27;20520;-84
2022/01/17 05:07:45;;;;;;;13.65;2.17;;;6.40;99.90;;;;;;5092638;27;20078;-82
2022/01/17 05:10:14;;;;;;;17.40;1.80;;;6.40;99.90;;;;;;5110980;27;20130;-82
2022/01/17 05:12:40;;;;;;;18.23;1.98;;;6.40;99.90;;;;;;5110458;27;20176;-82
2022/01/17 05:15:20;;;;;;;22.98;2.80;;;6.40;99.90;;;;;;5093156;27;20055;-82
2022/01/17 05:20:42;;;;;;;13.23;2.05;;;6.50;99.90;;;;;;5071724;27;20487;-82
2022/01/17 05:23:08;;;;;;;14.93;1.83;;;6.40;99.90;;;;;;5093690;27;20111;-81
2022/01/17 05:25:35;;;;;;;19.35;2.17;;;6.40;99.90;;;;;;5110478;27;20051;-82
2022/01/17 05:28:01;;;;;;;8.75;1.60;;;6.50;99.90;;;;;;5093065;27;20043;-83
2022/01/17 05:30:27;;;;;;;21.73;1.75;;;6.40;99.90;;;;;;5110446;27;20118;-83
2022/01/17 05:32:53;;;;;;;17.85;1.95;;;6.20;99.90;;;;;;5109503;27;20132;-83
2022/01/17 05:35:20;;;;;;;14.93;1.85;;;6.50;99.90;;;;;;5110142;27;20406;-83
2022/01/17 05:37:47;;;;;;;18.85;2.65;;;6.50;99.90;;;;;;5091850;27;20067;-83
2022/01/17 05:40:14;;;;;;;21.30;2.47;;;6.50;99.90;;;;;;5110697;27;20139;-83
2022/01/17 05:42:40;;;;;;;16.52;2.25;;;6.50;99.90;;;;;;5092652;27;20085;-83
2022/01/17 05:45:08;;;;;;;12.55;1.85;;;7.60;99.90;;;;;;5075991;27;20079;-83
2022/01/17 05:47:35;;;;;;;18.45;2.45;;;6.50;99.90;;;;;;5093041;27;20085;-83
2022/01/17 05:50:02;;;;;;;19.10;2.55;;;6.50;99.90;;;;;;5109090;27;20517;-82
2022/01/17 05:52:29;;;;;;;14.98;2.30;;;6.50;99.90;;;;;;5110239;27;20047;-84
2022/01/17 05:54:55;;;;;;;18.50;1.98;;;6.60;99.90;;;;;;5092185;27;20039;-83
2022/01/17 05:57:21;;;;;;;14.40;1.98;;;6.50;99.90;;;;;;5093526;27;20112;-84
2022/01/17 05:59:47;;;;;;;18.23;2.53;;;8.20;99.90;;;;;;5092815;27;20478;-84
2022/01/17 06:02:12;;;;;;;8.30;1.83;;;8.10;99.90;;;;;;5092932;27;20039;-84
2022/01/17 06:04:38;;;;;;;15.02;2.58;;;8.10;99.90;;;;;;5109954;27;20039;-84
2022/01/17 06:07:05;;;;;;;10.73;1.90;;;6.50;99.90;;;;;;5058792;27;20050;-84
2022/01/17 06:09:31;;;;;;;11.75;1.63;;;6.50;99.90;;;;;;5109597;27;20049;-85
2022/01/17 06:11:57;;;;;;;17.67;2.22;;;6.60;99.90;;;;;;5108940;27;20535;-84
2022/01/17 06:14:23;;;;;;;18.40;2.22;;;7.90;99.90;;;;;;5109584;27;20051;-84
2022/01/17 06:16:49;;;;;;;13.85;1.67;;;6.50;99.90;;;;;;5092116;27;20091;-83
2022/01/17 06:19:15;;;;;;;15.25;3.22;;;6.50;99.90;;;;;;5109321;27;20035;-86
2022/01/17 06:21:41;;;;;;;20.05;2.67;;;6.50;99.90;;;;;;5109638;27;20067;-82
2022/01/17 06:24:09;;;;;;;12.88;2.03;;;7.20;99.90;;;;;;5108564;27;20513;-85
2022/01/17 06:26:37;;;;;;;22.25;2.85;;;6.80;99.90;;;;;;5092714;27;20047;-84
2022/01/17 06:29:03;;;;;;;19.10;2.08;;;6.50;99.90;;;;;;5091502;27;20176;-85
2022/01/17 06:31:29;;;;;;;17.50;2.65;;;6.50;99.90;;;;;;5109428;27;20560;-86
2022/01/17 06:33:56;;;;;;;23.58;2.50;;;6.50;99.90;;;;;;5108758;27;20491;-86
2022/01/17 06:36:22;;;;;;;22.50;2.40;;;7.40;99.90;;;;;;5108331;27;20506;-81
2022/01/17 06:38:49;;;;;;;18.25;2.78;;;6.50;99.90;;;;;;5092797;27;20049;-83
2022/01/17 06:41:19;;;;;;;11.63;1.90;;;6.50;99.90;;;;;;5091541;27;20067;-83
2022/01/17 06:43:46;;;;;;;29.90;3.22;;;6.50;99.90;;;;;;5109232;27;20490;-83
2022/01/17 06:46:12;;;;;;;17.75;2.30;;;6.50;99.90;;;;;;5074708;27;20433;-83
2022/01/17 06:48:38;;;;;;;17.08;2.80;;;6.50;99.90;;;;;;5108610;27;20059;-83
2022/01/17 06:51:04;;;;;;;12.98;2.17;;;6.50;99.90;;;;;;5108905;27;20055;-83
2022/01/17 06:53:31;;;;;;;17.20;2.55;;;6.60;99.90;;;;;;5092127;27;20501;-83
2022/01/17 06:55:57;;;;;;;25.08;3.25;;;6.70;99.90;;;;;;5075677;27;20042;-83
2022/01/17 06:58:23;;;;;;;19.67;2.78;;;6.60;99.90;;;;;;5091083;27;20490;-83
2022/01/17 07:00:50;;;;;;;26.95;3.53;;;6.60;99.90;;;;;;5109345;27;20130;-83
2022/01/17 07:03:15;;;;;;;13.70;2.42;;;6.60;99.90;;;;;;5107596;27;20490;-83
2022/01/17 07:05:41;;;;;;;27.40;3.67;;;6.60;99.90;;;;;;5091867;28;20104;-83
2022/01/17 07:08:07;;;;;;;29.35;2.63;;;6.60;99.90;;;;;;5107803;27;20050;-83
2022/01/17 07:10:33;;;;;;;24.67;2.55;;;6.80;99.90;;;;;;5091340;28;20039;-83
2022/01/17 07:12:59;;;;;;;22.88;2.95;;;6.70;99.90;;;;;;5091747;27;20081;-83
2022/01/17 07:15:24;;;;;;;21.85;2.67;;;6.90;99.90;;;;;;5108061;28;20088;-82
2022/01/17 07:17:51;;;;;;;21.65;3.65;;;6.70;99.90;;;;;;5108671;28;20068;-83
2022/01/17 07:20:16;;;;;;;30.42;3.03;;;6.70;99.90;;;;;;5107732;28;20047;-82
2022/01/17 07:22:42;;;;;;;30.23;2.80;;;6.70;99.90;;;;;;5108480;28;20448;-81
2022/01/17 07:25:08;;;;;;;17.10;2.33;;;6.70;99.90;;;;;;5089166;28;20074;-81
2022/01/17 07:27:35;;;;;;;33.45;3.35;;;5.10;99.90;;;;;;5108033;28;20047;-81
2022/01/17 07:30:05;;;;;;;28.08;2.65;;;6.80;99.90;;;;;;5091171;28;20486;-81
2022/01/17 07:32:31;;;;;;;30.77;4.30;;;6.80;99.90;;;;;;5107061;28;20047;-81
2022/01/17 07:34:57;;;;;;;26.90;3.13;;;6.80;99.90;;;;;;5091227;28;20091;-81
2022/01/17 07:37:22;;;;;;;25.85;3.17;;;8.40;99.90;;;;;;5090639;28;20438;-81
2022/01/17 07:39:48;;;;;;;25.88;2.83;;;6.90;99.90;;;;;;5074516;28;20122;-81
2022/01/17 07:42:14;;;;;;;17.15;2.63;;;6.90;99.90;;;;;;5073717;28;20086;-81
2022/01/17 07:44:42;;;;;;;19.80;2.53;;;6.90;99.90;;;;;;5090763;28;20126;-81
2022/01/17 07:47:16;;;;;;;23.73;3.20;;;7.00;99.90;;;;;;5091296;28;20055;-83
2022/01/17 07:49:42;;;;;;;23.95;3.15;;;7.00;99.90;;;;;;5091449;28;20059;-80
2022/01/17 07:52:08;;;;;;;20.92;3.08;;;7.10;99.90;;;;;;5091355;28;20039;-80
2022/01/17 07:54:43;;;;;;;27.27;3.17;;;7.10;99.90;;;;;;5090330;28;20043;-80
2022/01/17 07:57:13;;;;;;;26.15;3.00;;;7.10;99.90;;;;;;5107992;28;20051;-82
2022/01/17 07:59:39;;;;;;;37.78;3.67;;;7.10;99.90;;;;;;5092330;27;20043;-82
2022/01/17 08:02:05;;;;;;;20.90;2.47;;;7.10;99.90;;;;;;5077838;27;20147;-82
2022/01/17 08:04:33;;;;;;;31.88;2.55;;;7.20;99.90;;;;;;5111610;27;20546;-82
2022/01/17 08:06:59;;;;;;;26.48;2.88;;;7.20;99.90;;;;;;5060993;27;20552;-82
2022/01/17 08:09:30;;;;;;;21.13;2.70;;;7.20;99.90;;;;;;5111068;27;20087;-82
2022/01/17 08:12:00;;;;;;;37.50;3.17;;;7.20;99.90;;;;;;5094026;27;20405;-82
2022/01/17 08:14:26;;;;;;;28.65;3.33;;;7.30;99.90;;;;;;5091598;27;20039;-83
2022/01/17 08:16:53;;;;;;;18.20;2.63;;;9.20;99.90;;;;;;5075723;27;20043;-83
2022/01/17 08:19:21;;;;;;;22.88;2.90;;;7.30;99.90;;;;;;5076863;27;20035;-83
2022/01/17 08:21:47;;;;;;;22.08;3.55;;;7.50;99.90;;;;;;5094655;27;20040;-81
2022/01/17 08:24:13;;;;;;;23.42;3.13;;;7.40;99.90;;;;;;5059531;27;20091;-83
2022/01/17 08:26:42;;;;;;;32.53;2.90;;;7.40;99.90;;;;;;5093087;27;20069;-82
2022/01/17 08:29:10;;;;;;;21.85;3.15;;;7.60;99.90;;;;;;5092091;27;20047;-82
2022/01/17 08:31:35;;;;;;;34.22;3.13;;;7.40;99.90;;;;;;5075294;27;20054;-82
2022/01/17 08:34:01;;;;;;;23.42;3.67;;;7.40;99.90;;;;;;5110229;27;20043;-82
2022/01/17 08:36:27;;;;;;;34.53;3.35;;;7.50;99.90;;;;;;5108795;27;20047;-82
2022/01/17 08:39:00;;;;;;;31.65;3.38;;;7.50;99.90;;;;;;5077871;27;20050;-82
2022/01/17 08:44:26;;;;;;;27.85;3.63;;;9.40;99.90;;;;;;5095378;27;20057;-82
2022/01/17 08:46:52;;;;;;;26.08;3.72;;;9.50;99.90;;;;;;5092941;27;20376;-82
2022/01/17 08:49:18;;;;;;;25.88;3.92;;;7.60;99.90;;;;;;5109675;27;20057;-82
2022/01/17 08:51:44;;;;;;;31.98;3.55;;;9.10;99.90;;;;;;5109527;27;20497;-81
2022/01/17 08:54:10;;;;;;;23.73;3.35;;;7.70;99.90;;;;;;5092121;27;20432;-81
2022/01/17 08:56:36;;;;;;;30.08;2.85;;;7.80;99.90;;;;;;5110868;27;20092;-80
2022/01/17 08:59:02;;;;;;;28.80;4.60;;;7.80;99.90;;;;;;5093381;27;20431;-83
2022/01/17 09:01:29;;;;;;;29.65;3.40;;;9.10;99.90;;;;;;5093586;27;20082;-83
2022/01/17 09:03:55;;;;;;;23.17;3.00;;;7.90;99.90;;;;;;5092851;27;20113;-82
2022/01/17 09:06:23;;;;;;;31.27;3.53;;;7.90;99.90;;;;;;5109206;27;20035;-83
2022/01/17 09:08:49;;;;;;;27.30;3.40;;;8.00;99.90;;;;;;5110447;27;20081;-82
2022/01/17 09:11:15;;;;;;;27.90;3.47;;;9.60;99.90;;;;;;5127432;27;20054;-83
2022/01/17 09:13:41;;;;;;;23.42;3.38;;;8.10;99.90;;;;;;5093193;27;20047;-83
2022/01/17 09:16:08;;;;;;;29.60;3.10;;;9.00;99.90;;;;;;5076397;27;20431;-83
2022/01/17 09:18:36;;;;;;;28.38;4.13;;;8.20;99.90;;;;;;5128081;27;20195;-83
2022/01/17 09:21:03;;;;;;;20.58;3.47;;;8.20;99.90;;;;;;5058740;27;20546;-82
2022/01/17 09:23:28;;;;;;;29.55;4.45;;;8.30;99.90;;;;;;5092657;27;20478;-82
2022/01/17 09:25:54;;;;;;;36.35;4.18;;;8.30;99.90;;;;;;5110379;27;20047;-82
2022/01/17 09:28:20;;;;;;;27.20;3.80;;;8.90;99.90;;;;;;5091038;27;20047;-82
2022/01/17 09:30:46;;;;;;;22.33;3.28;;;8.40;99.90;;;;;;5109715;27;20043;-83
2022/01/17 09:33:12;;;;;;;29.95;4.13;;;8.40;99.90;;;;;;5109550;27;20058;-82
2022/01/17 09:35:38;;;;;;;33.25;3.92;;;9.00;99.90;;;;;;5092006;27;20042;-83
2022/01/17 09:38:04;;;;;;;27.02;3.22;;;8.40;99.90;;;;;;5109210;27;20126;-82
2022/01/17 09:40:30;;;;;;;41.13;4.20;;;8.40;99.90;;;;;;5108965;27;20043;-83
2022/01/17 09:42:58;;;;;;;37.85;4.40;;;9.70;99.90;;;;;;5092904;27;20453;-82
2022/01/17 09:45:24;;;;;;;35.58;4.13;;;8.60;99.90;;;;;;5091619;27;20047;-83
2022/01/17 09:47:50;;;;;;;25.55;3.42;;;8.60;99.90;;;;;;5075846;27;20047;-83
2022/01/17 09:50:21;;;;;;;24.77;3.60;;;8.60;99.90;;;;;;5108603;27;20181;-83
2022/01/17 09:52:52;;;;;;;21.13;4.30;;;8.60;99.90;;;;;;5127499;27;20682;-84
2022/01/17 09:55:22;;;;;;;31.52;4.25;;;8.60;99.90;;;;;;5092058;27;20083;-83
2022/01/17 09:58:08;;;;;;;31.42;4.15;;;9.00;99.90;;;;;;5108368;27;20050;-83
2022/01/17 10:00:38;;;;;;;30.55;3.75;;;8.70;99.90;;;;;;5109773;27;20074;-83
2022/01/17 10:03:12;;;;;;;24.27;3.53;;;8.70;99.90;;;;;;5108803;27;20051;-83
2022/01/17 10:05:39;;;;;;;32.75;3.75;;;9.00;99.90;;;;;;5109168;27;20047;-83
2022/01/17 10:08:15;;;;;;;28.02;4.70;;;8.80;99.90;;;;;;5107757;27;20372;-83
2022/01/17 10:10:54;;;;;;;27.10;4.50;;;9.10;99.90;;;;;;5091457;27;20401;-83
2022/01/17 10:13:25;;;;;;;33.55;3.78;;;8.80;99.90;;;;;;5110153;27;20051;-81
2022/01/17 10:16:29;;;;;;;28.02;4.28;;;8.80;99.90;;;;;;5126758;27;20471;-84
2022/01/17 10:19:06;;;;;;;42.50;4.30;;;8.80;99.90;;;;;;5092029;27;20126;-84
2022/01/17 10:21:44;;;;;;;36.97;4.57;;;9.20;99.90;;;;;;5108805;27;20040;-83
2022/01/17 10:27:08;;;;;;;29.42;4.88;;;8.90;99.90;;;;;;5109267;27;20040;-83
2022/01/17 10:35:19;;;;;;;26.25;4.00;;;9.00;99.90;;;;;;5106871;27;20100;-83
2022/01/17 10:38:09;;;;;;;38.78;5.05;;;9.00;99.90;;;;;;5106520;27;20281;-84
2022/01/17 10:40:57;;;;;;;42.58;5.38;;;9.00;99.90;;;;;;5107158;27;20043;-83
2022/01/17 10:43:35;;;;;;;42.20;6.00;;;9.00;99.90;;;;;;5107551;27;20043;-83
2022/01/17 10:46:05;;;;;;;40.72;4.72;;;9.00;99.90;;;;;;5090370;27;20129;-84
2022/01/17 10:48:42;;;;;;;33.95;4.35;;;10.50;99.90;;;;;;5091588;27;20134;-82
2022/01/17 10:51:09;;;;;;;34.30;5.43;;;9.10;99.90;;;;;;5108813;27;20047;-82
2022/01/17 10:53:39;;;;;;;33.38;5.22;;;9.10;99.90;;;;;;5125875;27;20431;-82
2022/01/17 10:56:08;;;;;;;39.42;4.55;;;9.10;99.90;;;;;;5108767;27;20466;-82
2022/01/17 10:58:37;;;;;;;41.13;5.88;;;9.10;99.90;;;;;;5108092;27;20454;-81
2022/01/17 11:01:11;;;;;;;38.78;4.18;;;9.20;99.90;;;;;;5109218;27;20096;-81
2022/01/17 11:03:38;;;;;;;38.22;4.95;;;9.20;99.90;;;;;;5091758;28;20458;-82
2022/01/17 11:06:09;;;;;;;38.97;5.78;;;9.30;99.90;;;;;;5108552;27;20580;-82
2022/01/17 11:08:36;;;;;;;44.92;4.65;;;9.40;99.90;;;;;;5109060;27;20119;-82
2022/01/17 11:11:05;;;;;;;28.70;4.32;;;9.40;99.90;;;;;;5125956;27;20096;-84
2022/01/17 11:13:38;;;;;;;41.40;5.05;;;9.40;99.90;;;;;;5091417;27;20055;-83
2022/01/17 11:16:10;;;;;;;46.47;6.40;;;9.40;99.90;;;;;;5088830;27;20130;-83
2022/01/17 11:18:36;;;;;;;37.90;5.22;;;9.30;99.90;;;;;;5126814;27;20096;-83
2022/01/17 11:21:10;;;;;;;28.73;4.63;;;9.30;99.90;;;;;;5088827;28;20050;-83
2022/01/17 11:23:43;;;;;;;39.30;4.90;;;9.70;99.90;;;;;;5124526;28;20050;-83
2022/01/17 11:26:10;;;;;;;32.92;5.93;;;9.40;99.90;;;;;;5073404;28;20039;-83
2022/01/17 11:28:36;;;;;;;29.13;4.25;;;9.40;99.90;;;;;;5090246;28;20047;-83
2022/01/17 11:31:12;;;;;;;32.65;4.63;;;9.40;99.90;;;;;;5073703;28;20039;-83
2022/01/17 11:33:39;;;;;;;36.60;5.10;;;9.40;99.90;;;;;;5108381;28;20093;-83
2022/01/17 11:36:06;;;;;;;39.20;4.57;;;9.40;99.90;;;;;;5110935;27;20086;-83
2022/01/17 11:38:42;;;;;;;39.03;5.78;;;9.40;99.90;;;;;;5093355;27;20546;-83
2022/01/17 11:41:34;;;;;;;41.97;5.50;;;10.40;99.90;;;;;;5093503;27;20134;-84
2022/01/17 11:44:04;;;;;;;37.83;6.03;;;9.30;99.90;;;;;;5110101;27;20130;-83
2022/01/17 11:46:36;;;;;;;43.30;6.68;;;9.40;99.90;;;;;;5111654;27;20482;-84
2022/01/17 11:49:06;;;;;;;39.47;4.88;;;9.30;99.90;;;;;;5109927;27;20063;-82
2022/01/17 11:51:42;;;;;;;33.92;5.18;;;10.50;99.90;;;;;;5093090;27;20124;-82
2022/01/17 11:54:17;;;;;;;44.08;5.82;;;8.40;99.90;;;;;;5090735;27;20089;-82
2022/01/17 11:56:56;;;;;;;44.83;6.05;;;9.40;99.90;;;;;;5094990;27;20043;-82
2022/01/17 11:59:34;;;;;;;40.17;4.93;;;9.40;99.90;;;;;;5092283;27;20043;-83
2022/01/17 12:02:18;;;;;;;34.58;5.18;;;9.40;99.90;;;;;;5094629;27;20039;-82
2022/01/17 12:05:02;;;;;;;39.13;5.32;;;9.40;99.90;;;;;;5093455;27;20092;-82
2022/01/17 12:07:37;;;;;;;36.78;5.45;;;9.40;99.90;;;;;;5092752;27;20046;-82
2022/01/17 12:10:23;;;;;;;37.08;4.75;;;9.50;99.90;;;;;;5094191;27;20398;-82
2022/01/17 12:13:13;;;;;;;40.33;5.55;;;9.50;99.90;;;;;;5092164;27;20138;-82
2022/01/17 12:18:45;;;;;;;33.05;5.45;;;9.40;99.90;;;;;;5094764;27;20134;-82
2022/01/17 12:21:28;;;;;;;41.15;5.10;;;9.40;99.90;;;;;;5108739;27;20451;-82
2022/01/17 12:24:13;;;;;;;31.80;5.35;;;9.40;99.90;;;;;;5093188;27;20051;-82
2022/01/17 12:26:39;;;;;;;37.92;6.45;;;10.60;99.90;;;;;;5092686;27;20046;-82
2022/01/17 12:29:04;;;;;;;32.38;4.85;;;9.30;99.90;;;;;;5109704;27;20043;-82
2022/01/17 12:31:42;;;;;;;38.08;4.30;;;9.40;99.90;;;;;;5093024;27;20050;-83
2022/01/17 12:34:26;;;;;;;29.83;5.75;;;9.30;99.90;;;;;;5110275;27;20043;-83
2022/01/17 12:36:55;;;;;;;30.60;5.38;;;9.30;99.90;;;;;;5110701;27;20047;-82
2022/01/17 12:39:28;;;;;;;34.80;5.07;;;9.30;99.90;;;;;;5093338;27;20129;-82
2022/01/17 12:42:03;;;;;;;42.40;5.95;;;9.40;99.90;;;;;;5105932;27;20055;-83
2022/01/17 12:44:33;;;;;;;37.10;5.38;;;9.40;99.90;;;;;;5075149;27;20141;-83
2022/01/17 12:47:02;;;;;;;22.73;4.50;;;9.30;99.90;;;;;;5074794;27;20043;-83
2022/01/17 12:49:30;;;;;;;42.03;5.45;;;9.30;99.90;;;;;;5107554;28;20051;-83
2022/01/17 12:51:57;;;;;;;40.58;5.10;;;9.30;99.90;;;;;;5109693;28;20122;-82
2022/01/17 12:54:26;;;;;;;50.15;6.07;;;9.30;99.90;;;;;;5107368;28;20051;-82
2022/01/17 12:56:56;;;;;;;31.83;4.38;;;9.30;99.90;;;;;;5089457;28;20092;-83
2022/01/17 12:59:23;;;;;;;43.65;6.85;;;9.30;99.90;;;;;;5091961;28;20046;-82
2022/01/17 13:02:07;;;;;;;39.90;6.22;;;10.70;99.90;;;;;;5107322;28;20058;-83
2022/01/17 13:04:35;;;;;;;37.42;5.25;;;9.30;99.90;;;;;;5092355;28;20470;-83
2022/01/17 13:07:02;;;;;;;47.20;7.63;;;10.80;99.90;;;;;;5091256;28;20047;-82
2022/01/17 13:09:29;;;;;;;38.15;4.95;;;9.40;99.90;;;;;;5126036;28;20161;-83
2022/01/17 13:11:57;;;;;;;32.40;4.95;;;9.40;99.90;;;;;;5127480;28;20402;-83
2022/01/17 13:14:23;;;;;;;32.95;4.53;;;9.60;99.90;;;;;;5109000;28;20061;-80
2022/01/17 13:16:50;;;;;;;37.03;4.88;;;9.50;99.90;;;;;;5127759;28;20108;-82
2022/01/17 13:19:17;;;;;;;36.33;5.57;;;9.50;99.90;;;;;;5128200;28;20035;-82
2022/01/17 13:21:45;;;;;;;28.70;3.92;;;9.40;99.90;;;;;;5109572;28;20103;-82
2022/01/17 13:24:34;;;;;;;40.80;5.03;;;9.40;99.90;;;;;;5127522;28;20062;-82